< Cyclone 201304 2013 Season Cyclone 201307 >
Cyclone 201305 (Narelle)
General InformationDetailed Track InformationTrack Information on Google MapsList of All Images || ResourceGoogle EarthGE AnimationAtom FeedGeoJSON
Detalied Best Track Wind (Time Zone = UTC)
Year Month Day Hour Lat. Long. Wind (kt) Gust (kt) Direc. of Major Storm Axis Radius of Major Storm Axis (nm) Radius of Minor Storm Axis (nm) Direc. of Major Gale Axis Radius of Major Gale Axis (nm) Radius of Minor Gale Axis (nm) Image
2013 1 5 00 -9.9 125.8 0 -1 symmetric - - symmetric - - Image
2013 1 5 06 -9.9 126.3 0 -1 symmetric - - symmetric - - Image
2013 1 5 12 -10.4 126.0 20 45 symmetric - - symmetric - - Image
2013 1 5 18 -10.4 125.8 20 45 symmetric - - symmetric - - Image
2013 1 6 00 -10.4 125.5 25 45 symmetric - - symmetric - - Image
2013 1 6 06 -10.7 125.0 25 45 symmetric - - symmetric - - Image
2013 1 6 12 -11.0 123.7 25 45 symmetric - - symmetric - - Image
2013 1 6 18 -11.1 122.9 25 45 symmetric - - symmetric - - Image
2013 1 7 00 -11.3 121.8 25 45 symmetric - - symmetric - - Image
2013 1 7 06 -11.2 121.4 25 45 symmetric - - symmetric - - Image
2013 1 7 12 -11.2 120.7 25 45 symmetric - - symmetric - - Image
2013 1 7 18 -11.5 119.9 30 45 symmetric - - symmetric - - Image
2013 1 8 00 -11.8 119.1 35 50 symmetric - - symmetric - - Image
2013 1 8 06 -12.0 118.4 40 55 symmetric - - symmetric - - Image
2013 1 8 12 -12.1 117.8 45 65 symmetric - - symmetric - - Image
2013 1 8 18 -12.3 117.2 50 70 symmetric - - symmetric - - Image
2013 1 9 00 -12.5 116.7 55 75 symmetric - - symmetric - - Image
2013 1 9 06 -12.9 116.4 60 85 symmetric - - symmetric - - Image
2013 1 9 12 -13.3 116.1 65 90 symmetric - - symmetric - - Image
2013 1 9 18 -13.6 115.9 65 90 symmetric - - symmetric - - Image
2013 1 10 00 -14.3 115.7 70 100 symmetric - - symmetric - - Image
2013 1 10 06 -15.5 115.2 75 105 symmetric - - symmetric - - Image
2013 1 10 09 -15.8 115.1 80 110 symmetric - - symmetric - - Image
2013 1 10 12 -16.2 115.0 85 120 symmetric - - symmetric - - Image
2013 1 10 18 -16.5 114.4 90 125 symmetric - - symmetric - - Image
2013 1 11 00 -16.9 113.8 95 135 symmetric - - symmetric - - Image
2013 1 11 06 -17.5 113.2 100 140 symmetric - - symmetric - - Image
2013 1 11 12 -17.8 112.7 105 145 symmetric - - symmetric - - Image
2013 1 11 18 -18.2 112.3 105 145 symmetric - - symmetric - - Image
2013 1 12 00 -18.5 112.0 105 145 symmetric - - symmetric - - Image
2013 1 12 06 -19.2 112.0 100 140 symmetric - - symmetric - - Image
2013 1 12 12 -19.8 111.6 95 135 symmetric - - symmetric - - Image
2013 1 12 18 -20.4 111.3 85 120 symmetric - - symmetric - - Image
2013 1 13 00 -21.3 110.8 70 100 symmetric - - symmetric - - Image
2013 1 13 06 -22.2 110.4 65 90 symmetric - - symmetric - - Image
2013 1 13 12 -23.2 110.1 50 70 symmetric - - symmetric - - Image
2013 1 13 18 -24.2 110.0 45 65 symmetric - - symmetric - - Image
2013 1 14 00 -25.2 109.9 40 55 symmetric - - symmetric - - Image
2013 1 14 06 -26.4 109.7 35 50 symmetric - - symmetric - - Image
2013 1 14 12 -27.5 109.5 25 45 symmetric - - symmetric - - Image
2013 1 14 15 -28.1 109.3 38 53 symmetric - - symmetric - - Image
2013 1 14 18 -28.7 109.2 25 45 symmetric - - symmetric - - Image
2013 1 15 00 -29.9 109.0 20 45 symmetric - - symmetric - - Image
2013 1 15 06 -31.0 109.5 15 45 symmetric - - symmetric - - Image
< Cyclone 201304 2013 Season Cyclone 201307 >

Help